createdAt,value
2023-02-09T00:01:03.036Z,71.37
2023-02-09T00:03:29.589Z,71.19
2023-02-09T00:05:58.208Z,71.39
2023-02-09T00:08:24.704Z,71.07
2023-02-09T00:10:51.167Z,70.19
2023-02-09T00:13:23.721Z,71.06
2023-02-09T00:15:50.228Z,71.59
2023-02-09T00:18:16.838Z,72.34
2023-02-09T00:20:43.674Z,71.85
2023-02-09T00:23:10.426Z,71.00
2023-02-09T00:25:40.127Z,70.92
2023-02-09T00:28:06.980Z,70.88
2023-02-09T00:30:33.563Z,70.47
2023-02-09T00:33:00.094Z,71.88
2023-02-09T00:35:26.637Z,72.30
2023-02-09T00:37:53.836Z,72.39
2023-02-09T00:40:20.389Z,72.42
2023-02-09T00:42:46.869Z,72.00
2023-02-09T00:45:13.805Z,72.35
2023-02-09T00:47:40.722Z,72.66
2023-02-09T00:50:08.454Z,72.54
2023-02-09T00:52:35.248Z,73.04
2023-02-09T00:55:01.705Z,73.09
2023-02-09T00:57:28.252Z,73.11
2023-02-09T00:59:54.792Z,73.75
2023-02-09T01:02:21.265Z,73.85
2023-02-09T01:04:47.797Z,73.87
2023-02-09T01:07:15.967Z,74.34
2023-02-09T01:09:42.638Z,74.19
2023-02-09T01:12:09.111Z,74.35
2023-02-09T01:14:37.936Z,74.38
2023-02-09T01:17:04.817Z,75.42
2023-02-09T01:19:31.539Z,76.32
2023-02-09T01:21:58.011Z,76.14
2023-02-09T01:24:24.500Z,76.62
2023-02-09T01:26:50.995Z,77.08
2023-02-09T01:29:18.421Z,76.92
2023-02-09T01:31:45.603Z,77.64
2023-02-09T01:34:13.682Z,78.47
2023-02-09T01:36:40.419Z,78.34
2023-02-09T01:39:07.199Z,79.07
2023-02-09T01:41:34.798Z,79.25
2023-02-09T01:44:03.653Z,78.75
2023-02-09T01:46:31.768Z,78.75
2023-02-09T01:49:01.626Z,78.32
2023-02-09T01:51:29.238Z,78.14
2023-02-09T01:53:56.825Z,77.85
2023-02-09T01:56:28.100Z,77.00
2023-02-09T01:58:54.766Z,77.08
2023-02-09T02:01:21.868Z,77.21
2023-02-09T02:03:48.742Z,77.16
2023-02-09T02:06:15.861Z,76.12
2023-02-09T02:08:55.312Z,76.33
2023-02-09T02:11:24.036Z,76.12
2023-02-09T02:13:50.861Z,76.86
2023-02-09T02:16:20.514Z,77.33
2023-02-09T02:19:05.887Z,77.36
2023-02-09T02:21:32.295Z,77.11
2023-02-09T02:24:01.573Z,77.38
2023-02-09T02:26:48.354Z,77.54
2023-02-09T02:29:15.058Z,77.29
2023-02-09T02:31:41.499Z,78.23
2023-02-09T02:34:25.456Z,77.86
2023-02-09T02:36:58.598Z,78.28
2023-02-09T02:39:28.133Z,77.95
2023-02-09T02:42:18.953Z,77.68
2023-02-09T02:44:49.998Z,78.28
2023-02-09T02:47:19.226Z,78.87
2023-02-09T02:49:45.636Z,78.47
2023-02-09T02:52:12.190Z,78.80
2023-02-09T02:54:40.835Z,78.00
2023-02-09T02:57:13.554Z,79.08
2023-02-09T02:59:44.237Z,78.26
2023-02-09T03:02:13.580Z,79.57
2023-02-09T03:04:40.700Z,78.67
2023-02-09T03:07:10.792Z,79.45
2023-02-09T03:09:37.256Z,79.09
2023-02-09T03:12:16.928Z,79.37
2023-02-09T03:14:48.025Z,79.96
2023-02-09T03:17:27.801Z,79.21
2023-02-09T03:20:01.369Z,79.05
2023-02-09T03:22:31.031Z,79.67
2023-02-09T03:25:03.101Z,78.97
2023-02-09T03:27:35.230Z,79.79
2023-02-09T03:30:04.279Z,79.18
2023-02-09T03:32:31.337Z,79.07
2023-02-09T03:34:58.031Z,79.75
2023-02-09T03:37:24.517Z,79.98
2023-02-09T03:39:50.988Z,79.41
2023-02-09T03:42:17.506Z,79.86
2023-02-09T03:44:44.029Z,80.00
2023-02-09T03:47:10.822Z,80.41
2023-02-09T03:49:41.253Z,79.75
2023-02-09T03:52:09.065Z,80.46
2023-02-09T03:54:35.862Z,80.75
2023-02-09T03:57:03.099Z,79.78
2023-02-09T03:59:29.692Z,79.86
2023-02-09T04:01:57.828Z,80.54
2023-02-09T04:04:25.405Z,80.50
2023-02-09T04:06:52.232Z,80.09
2023-02-09T04:09:18.833Z,80.19
2023-02-09T04:11:47.064Z,78.88
2023-02-09T04:14:13.636Z,80.08
2023-02-09T04:16:40.356Z,80.71
2023-02-09T04:19:09.099Z,80.35
2023-02-09T04:21:38.915Z,80.06
2023-02-09T04:24:05.966Z,79.69
2023-02-09T04:26:32.712Z,79.99
2023-02-09T04:28:59.187Z,80.26
2023-02-09T04:31:25.937Z,80.86
2023-02-09T04:33:52.443Z,81.48
2023-02-09T04:36:18.905Z,82.06
2023-02-09T04:38:45.369Z,81.14
2023-02-09T04:41:11.912Z,79.99
2023-02-09T04:43:38.372Z,81.45
2023-02-09T04:46:04.962Z,80.75
2023-02-09T04:48:31.474Z,80.83
2023-02-09T04:50:58.065Z,80.95
2023-02-09T04:53:24.984Z,81.96
2023-02-09T04:55:52.064Z,82.04
2023-02-09T04:58:38.330Z,82.64
2023-02-09T05:01:05.318Z,82.27
2023-02-09T05:03:31.892Z,81.11
2023-02-09T05:05:59.589Z,81.36
2023-02-09T05:08:26.479Z,81.76
2023-02-09T05:10:53.587Z,81.71
2023-02-09T05:13:20.523Z,82.19
2023-02-09T05:15:47.154Z,81.43
2023-02-09T05:18:15.569Z,82.16
2023-02-09T05:20:42.334Z,82.32
2023-02-09T05:23:08.860Z,82.03
2023-02-09T05:25:35.435Z,81.86
2023-02-09T05:28:01.969Z,82.16
2023-02-09T05:30:28.645Z,82.29
2023-02-09T05:32:55.514Z,82.44
2023-02-09T05:35:21.982Z,81.23
2023-02-09T05:37:48.426Z,81.23
2023-02-09T05:40:15.031Z,81.41
2023-02-09T05:42:41.609Z,82.38
2023-02-09T05:45:08.667Z,82.40
2023-02-09T05:47:35.218Z,81.15
2023-02-09T05:50:01.671Z,82.20
2023-02-09T05:52:28.154Z,81.58
2023-02-09T05:54:55.066Z,81.39
2023-02-09T05:57:21.657Z,81.91
2023-02-09T05:59:48.090Z,82.76
2023-02-09T06:02:14.685Z,81.76
2023-02-09T06:04:41.218Z,82.18
2023-02-09T06:07:07.702Z,82.50
2023-02-09T06:09:34.209Z,82.64
2023-02-09T06:12:00.772Z,83.07
2023-02-09T06:14:27.295Z,82.68
2023-02-09T06:16:53.737Z,82.09
2023-02-09T06:19:21.157Z,81.95
2023-02-09T06:21:47.627Z,82.99
2023-02-09T06:24:14.855Z,82.79
2023-02-09T06:26:41.623Z,82.75
2023-02-09T06:29:09.252Z,81.62
2023-02-09T06:31:36.047Z,81.76
2023-02-09T06:34:02.534Z,82.35
2023-02-09T06:36:29.072Z,80.67
2023-02-09T06:38:55.723Z,80.41
2023-02-09T06:41:22.329Z,78.95
2023-02-09T06:43:48.977Z,81.60
2023-02-09T06:46:15.641Z,80.94
2023-02-09T06:48:42.086Z,77.94
2023-02-09T06:51:09.277Z,79.18
2023-02-09T06:53:36.549Z,80.53
2023-02-09T06:56:03.150Z,80.23
2023-02-09T06:58:30.073Z,81.24
2023-02-09T07:01:01.497Z,82.65
2023-02-09T07:03:27.936Z,80.13
2023-02-09T07:05:54.356Z,78.36
2023-02-09T07:08:20.837Z,81.17
2023-02-09T07:10:47.502Z,81.15
2023-02-09T07:13:14.150Z,79.37
2023-02-09T07:15:41.595Z,78.62
2023-02-09T07:18:08.048Z,77.97
2023-02-09T07:20:34.458Z,76.91
2023-02-09T07:23:01.572Z,75.92
2023-02-09T07:25:28.053Z,76.59
2023-02-09T07:27:54.638Z,76.04
2023-02-09T07:30:21.190Z,73.98
2023-02-09T07:32:47.621Z,73.08
2023-02-09T07:35:14.073Z,72.38
2023-02-09T07:37:40.531Z,70.14
2023-02-09T07:40:07.449Z,68.30
2023-02-09T07:42:33.878Z,66.80
2023-02-09T07:45:02.208Z,65.58
2023-02-09T07:47:28.714Z,65.01
2023-02-09T07:49:55.204Z,65.59
2023-02-09T07:52:21.644Z,63.93
2023-02-09T07:54:49.312Z,63.69
2023-02-09T07:57:15.738Z,63.94
2023-02-09T07:59:42.232Z,64.57
2023-02-09T08:02:16.393Z,63.39
2023-02-09T08:04:43.528Z,63.43
2023-02-09T08:07:09.990Z,63.64
2023-02-09T08:09:36.474Z,63.13
2023-02-09T08:12:04.948Z,59.50
2023-02-09T08:14:39.605Z,62.35
2023-02-09T08:17:28.027Z,59.24
2023-02-09T08:20:00.712Z,58.05
2023-02-09T08:22:29.841Z,57.08
2023-02-09T08:24:57.111Z,59.45
2023-02-09T08:27:23.803Z,59.33
2023-02-09T08:29:50.288Z,58.32
2023-02-09T08:32:16.800Z,57.41
2023-02-09T08:34:43.347Z,56.53
2023-02-09T08:37:10.093Z,58.54
2023-02-09T08:39:36.515Z,58.26
2023-02-09T08:42:03.110Z,58.67
2023-02-09T08:44:29.552Z,56.98
2023-02-09T08:46:56.198Z,54.98
2023-02-09T08:49:22.971Z,55.80
2023-02-09T08:51:49.496Z,56.09
2023-02-09T08:54:16.269Z,56.22
2023-02-09T08:56:44.098Z,59.59
2023-02-09T08:59:10.706Z,59.29
2023-02-09T09:01:39.417Z,57.63
2023-02-09T09:04:06.565Z,55.09
2023-02-09T09:06:33.431Z,55.33
2023-02-09T09:09:00.324Z,56.77
2023-02-09T09:11:26.847Z,52.74
2023-02-09T09:13:53.499Z,50.13
2023-02-09T09:16:21.420Z,54.88
2023-02-09T09:18:48.241Z,52.30
2023-02-09T09:21:16.125Z,52.36
2023-02-09T09:23:42.979Z,50.08
2023-02-09T09:26:09.429Z,51.89
2023-02-09T09:28:36.316Z,53.26
2023-02-09T09:31:16.475Z,52.60
2023-02-09T09:33:43.623Z,51.18
2023-02-09T09:36:11.016Z,50.25
2023-02-09T09:38:38.508Z,50.13
2023-02-09T09:41:06.313Z,48.86
2023-02-09T09:43:32.711Z,47.50
2023-02-09T09:45:59.695Z,48.42
2023-02-09T09:48:28.616Z,47.26
2023-02-09T09:50:57.314Z,45.18
2023-02-09T09:53:33.173Z,45.62
2023-02-09T09:56:03.488Z,44.95
2023-02-09T09:58:30.869Z,45.53
2023-02-09T10:00:57.665Z,45.36
2023-02-09T10:03:24.629Z,42.02
2023-02-09T10:05:55.862Z,44.61
2023-02-09T10:08:30.008Z,39.46
2023-02-09T10:11:16.754Z,40.12
2023-02-09T10:13:50.563Z,40.95
2023-02-09T10:16:20.210Z,41.71
2023-02-09T10:18:53.956Z,40.52
2023-02-09T10:21:20.843Z,41.80
2023-02-09T10:23:47.277Z,40.23
2023-02-09T10:26:17.661Z,41.69
2023-02-09T10:28:45.953Z,39.11
2023-02-09T10:31:18.911Z,39.13
2023-02-09T10:33:49.336Z,36.49
2023-02-09T10:36:22.264Z,37.22
2023-02-09T10:38:48.777Z,38.91
2023-02-09T10:41:16.068Z,38.14
2023-02-09T10:43:43.030Z,38.99
2023-02-09T10:46:11.737Z,36.08
2023-02-09T10:48:43.001Z,38.04
2023-02-09T10:51:33.457Z,37.67
2023-02-09T10:53:59.963Z,37.61
2023-02-09T10:56:34.957Z,35.53
2023-02-09T10:59:04.411Z,34.02
2023-02-09T11:01:41.938Z,34.30
2023-02-09T11:04:22.294Z,34.78
2023-02-09T11:06:51.829Z,35.37
2023-02-09T11:09:20.253Z,36.75
2023-02-09T11:11:46.685Z,35.30
2023-02-09T11:14:14.123Z,37.10
2023-02-09T11:16:59.302Z,35.69
2023-02-09T11:19:44.550Z,34.72
2023-02-09T11:22:28.629Z,33.63
2023-02-09T11:25:17.413Z,33.47
2023-02-09T11:27:55.937Z,34.30
2023-02-09T11:30:37.717Z,34.74
2023-02-09T11:33:16.190Z,34.67
2023-02-09T11:35:45.633Z,35.28
2023-02-09T11:38:18.225Z,34.19
2023-02-09T11:40:49.227Z,35.28
2023-02-09T11:43:41.689Z,34.49
2023-02-09T11:46:14.785Z,35.85
2023-02-09T11:48:45.084Z,34.17
2023-02-09T11:51:17.388Z,32.32
2023-02-09T11:53:46.853Z,31.89
2023-02-09T11:56:15.829Z,33.23
2023-02-09T11:58:57.393Z,33.05
2023-02-09T12:01:29.984Z,32.87
2023-02-09T12:04:05.466Z,32.01
2023-02-09T12:06:55.853Z,32.53
2023-02-09T12:09:39.808Z,34.02
2023-02-09T12:12:12.290Z,32.81
2023-02-09T12:14:45.450Z,33.25
2023-02-09T12:17:15.125Z,31.46
2023-02-09T12:19:44.561Z,33.11
2023-02-09T12:22:29.954Z,31.02
2023-02-09T12:25:11.421Z,32.00
2023-02-09T12:27:40.888Z,31.67
2023-02-09T12:30:25.980Z,32.36
2023-02-09T12:33:10.407Z,32.17
2023-02-09T12:35:40.331Z,32.83
2023-02-09T12:38:19.742Z,33.82
2023-02-09T12:41:01.184Z,33.07
2023-02-09T12:43:29.739Z,33.53
2023-02-09T12:46:22.842Z,32.52
2023-02-09T12:49:01.513Z,33.47
2023-02-09T12:51:37.130Z,33.61
2023-02-09T12:54:22.344Z,34.18
2023-02-09T12:56:48.788Z,34.07
2023-02-09T12:59:16.783Z,33.89
2023-02-09T13:02:06.256Z,33.13
2023-02-09T13:04:34.745Z,33.71
2023-02-09T13:07:01.615Z,33.33
2023-02-09T13:09:34.913Z,32.09
2023-02-09T13:12:06.173Z,32.85
2023-02-09T13:14:32.756Z,34.30
2023-02-09T13:17:08.339Z,33.75
2023-02-09T13:19:53.641Z,33.03
2023-02-09T13:22:29.408Z,33.14
2023-02-09T13:25:10.714Z,33.50
2023-02-09T13:27:43.577Z,33.90
2023-02-09T13:30:14.763Z,35.79
2023-02-09T13:32:50.260Z,34.50
2023-02-09T13:35:23.485Z,34.98
2023-02-09T13:37:54.073Z,34.41
2023-02-09T13:40:23.706Z,33.72
2023-02-09T13:43:10.125Z,33.29
2023-02-09T13:45:36.933Z,34.74
2023-02-09T13:48:13.705Z,34.30
2023-02-09T13:50:46.576Z,35.27
2023-02-09T13:53:16.789Z,34.39
2023-02-09T13:55:47.009Z,34.26
2023-02-09T13:58:17.279Z,34.47
2023-02-09T14:00:45.667Z,35.39
2023-02-09T14:03:17.706Z,35.33
2023-02-09T14:05:48.244Z,34.90
2023-02-09T14:08:16.087Z,35.68
2023-02-09T14:10:45.095Z,34.11
2023-02-09T14:13:11.866Z,34.18
2023-02-09T14:15:59.594Z,34.80
2023-02-09T14:18:26.022Z,33.49
2023-02-09T14:21:24.862Z,34.48
2023-02-09T14:24:00.827Z,33.35
2023-02-09T14:26:28.530Z,34.82
2023-02-09T14:29:05.039Z,35.03
2023-02-09T14:31:34.298Z,35.00
2023-02-09T14:34:00.814Z,35.48
2023-02-09T14:36:35.342Z,35.86
2023-02-09T14:39:21.024Z,35.79
2023-02-09T14:42:06.449Z,35.67
2023-02-09T14:44:32.934Z,35.69
2023-02-09T14:47:00.974Z,35.20
2023-02-09T14:49:28.458Z,35.16
2023-02-09T14:52:15.012Z,35.75
2023-02-09T14:54:50.924Z,35.76
2023-02-09T14:57:17.463Z,35.52
2023-02-09T14:59:43.905Z,36.74
2023-02-09T15:02:16.697Z,36.79
2023-02-09T15:04:43.382Z,36.38
2023-02-09T15:07:11.790Z,37.48
2023-02-09T15:09:38.657Z,38.78
2023-02-09T15:12:06.090Z,38.05
2023-02-09T15:14:44.026Z,38.00
2023-02-09T15:17:12.531Z,37.98
2023-02-09T15:19:39.073Z,37.62
2023-02-09T15:22:07.625Z,37.59
2023-02-09T15:24:37.417Z,37.46
2023-02-09T15:27:03.987Z,38.34
2023-02-09T15:29:30.754Z,39.21
2023-02-09T15:31:57.290Z,41.12
2023-02-09T15:34:23.799Z,41.52
2023-02-09T15:36:50.557Z,42.13
2023-02-09T15:39:19.749Z,43.39
2023-02-09T15:42:04.914Z,43.31
2023-02-09T15:44:50.135Z,43.41
2023-02-09T15:47:35.147Z,44.36
2023-02-09T15:50:01.587Z,43.95
2023-02-09T15:52:29.460Z,45.32
2023-02-09T15:54:56.042Z,45.77
2023-02-09T15:57:25.126Z,45.85
2023-02-09T15:59:51.826Z,46.32
2023-02-09T16:02:19.427Z,46.38
2023-02-09T16:04:46.497Z,47.42
2023-02-09T16:07:14.582Z,48.45
2023-02-09T16:09:42.757Z,49.36
2023-02-09T16:12:12.328Z,49.41
2023-02-09T16:14:39.040Z,49.84
2023-02-09T16:17:05.703Z,51.23
2023-02-09T16:19:32.261Z,51.36
2023-02-09T16:21:59.972Z,50.76
2023-02-09T16:24:30.182Z,52.01
2023-02-09T16:26:58.377Z,52.85
2023-02-09T16:29:25.890Z,51.95
2023-02-09T16:31:52.469Z,54.14
2023-02-09T16:34:18.933Z,54.23
2023-02-09T16:36:47.700Z,53.44
2023-02-09T16:39:19.170Z,54.08
2023-02-09T16:41:52.818Z,53.66
2023-02-09T16:44:23.975Z,53.36
2023-02-09T16:46:55.286Z,54.22
2023-02-09T16:49:41.613Z,54.48
2023-02-09T16:52:14.136Z,54.75
2023-02-09T16:54:43.343Z,54.89
2023-02-09T16:57:14.596Z,55.33
2023-02-09T16:59:41.189Z,55.11
2023-02-09T17:02:30.996Z,55.29
2023-02-09T17:04:58.115Z,56.53
2023-02-09T17:07:32.987Z,55.76
2023-02-09T17:10:02.193Z,56.89
2023-02-09T17:12:28.740Z,57.05
2023-02-09T17:14:55.180Z,55.91
2023-02-09T17:17:22.700Z,55.72
2023-02-09T17:19:49.986Z,54.46
2023-02-09T17:22:16.542Z,55.18
2023-02-09T17:24:43.039Z,57.44
2023-02-09T17:27:09.838Z,57.47
2023-02-09T17:29:36.302Z,57.31
2023-02-09T17:32:02.938Z,57.26
2023-02-09T17:34:29.504Z,57.39
2023-02-09T17:36:56.779Z,58.31
2023-02-09T17:39:23.267Z,58.45
2023-02-09T17:41:50.045Z,57.77
2023-02-09T17:44:39.633Z,58.93
2023-02-09T17:47:19.934Z,59.03
2023-02-09T17:49:46.959Z,60.26
2023-02-09T17:52:22.468Z,60.65
2023-02-09T17:54:50.833Z,59.04
2023-02-09T17:57:17.351Z,58.95
2023-02-09T17:59:43.999Z,58.80
2023-02-09T18:02:15.513Z,59.49
2023-02-09T18:04:42.401Z,59.80
2023-02-09T18:07:09.534Z,59.98
2023-02-09T18:09:36.660Z,60.80
2023-02-09T18:12:04.579Z,60.82
2023-02-09T18:14:32.454Z,60.38
2023-02-09T18:16:59.174Z,60.25
2023-02-09T18:19:25.973Z,60.39
2023-02-09T18:21:54.089Z,60.92
2023-02-09T18:24:21.741Z,59.95
2023-02-09T18:26:50.038Z,60.14
2023-02-09T18:29:17.458Z,61.20
2023-02-09T18:31:44.224Z,62.52
2023-02-09T18:34:10.815Z,62.65
2023-02-09T18:36:37.328Z,63.06
2023-02-09T18:39:03.876Z,62.41
2023-02-09T18:41:30.335Z,63.21
2023-02-09T18:43:56.851Z,61.95
2023-02-09T18:46:25.349Z,61.98
2023-02-09T18:48:51.882Z,62.23
2023-02-09T18:51:18.565Z,62.64
2023-02-09T18:53:45.038Z,62.74
2023-02-09T18:56:19.248Z,62.10
2023-02-09T18:58:46.132Z,62.52
2023-02-09T19:01:12.986Z,63.62
2023-02-09T19:03:39.590Z,62.37
2023-02-09T19:06:09.992Z,62.87
2023-02-09T19:08:36.684Z,64.09
2023-02-09T19:11:05.101Z,65.43
2023-02-09T19:13:33.867Z,66.08
2023-02-09T19:16:00.834Z,65.98
2023-02-09T19:18:27.431Z,65.57
2023-02-09T19:20:56.952Z,65.51
2023-02-09T19:23:24.479Z,65.56
2023-02-09T19:26:00.454Z,65.97
2023-02-09T19:28:26.974Z,67.72
2023-02-09T19:30:53.470Z,68.00
2023-02-09T19:33:23.045Z,67.10
2023-02-09T19:35:58.680Z,67.80
2023-02-09T19:38:25.700Z,66.46
2023-02-09T19:41:05.129Z,65.57
2023-02-09T19:43:36.246Z,65.82
2023-02-09T19:46:04.440Z,65.71
2023-02-09T19:48:31.067Z,65.75
2023-02-09T19:50:58.093Z,65.24
2023-02-09T19:53:25.456Z,65.25
2023-02-09T19:55:52.608Z,64.75
2023-02-09T19:58:21.388Z,64.70
2023-02-09T20:00:48.350Z,66.23
2023-02-09T20:03:15.776Z,65.96
2023-02-09T20:05:43.125Z,65.76
2023-02-09T20:08:11.627Z,66.13
2023-02-09T20:10:38.870Z,66.54
2023-02-09T20:13:05.597Z,66.39
2023-02-09T20:15:32.321Z,66.71
2023-02-09T20:17:58.871Z,66.82
2023-02-09T20:20:25.365Z,66.82
2023-02-09T20:22:51.859Z,67.74
2023-02-09T20:25:18.774Z,66.74
2023-02-09T20:27:47.488Z,67.94
2023-02-09T20:30:14.257Z,67.74
2023-02-09T20:32:40.745Z,67.49
2023-02-09T20:35:07.477Z,67.05
2023-02-09T20:37:33.972Z,68.18
2023-02-09T20:40:01.438Z,68.08
2023-02-09T20:42:46.763Z,67.50
2023-02-09T20:45:32.370Z,68.02
2023-02-09T20:47:58.900Z,70.40
2023-02-09T20:50:25.701Z,68.95
2023-02-09T20:52:52.240Z,69.81
2023-02-09T20:55:22.410Z,68.71
2023-02-09T20:57:50.284Z,69.05
2023-02-09T21:00:16.879Z,68.08
2023-02-09T21:02:43.368Z,69.49
2023-02-09T21:05:09.872Z,69.10
2023-02-09T21:07:36.387Z,68.53
2023-02-09T21:10:03.062Z,69.13
2023-02-09T21:12:29.580Z,69.42
2023-02-09T21:14:56.551Z,70.24
2023-02-09T21:17:23.483Z,69.56
2023-02-09T21:19:50.195Z,69.68
2023-02-09T21:22:16.901Z,68.51
2023-02-09T21:24:43.450Z,69.04
2023-02-09T21:27:09.879Z,69.47
2023-02-09T21:29:36.494Z,69.72
2023-02-09T21:32:04.316Z,70.01
2023-02-09T21:34:31.620Z,71.98
2023-02-09T21:36:58.492Z,70.77
2023-02-09T21:39:24.935Z,69.78
2023-02-09T21:42:10.248Z,69.94
2023-02-09T21:44:37.413Z,70.71
2023-02-09T21:47:04.064Z,69.58
2023-02-09T21:49:31.868Z,70.67
2023-02-09T21:51:59.656Z,70.33
2023-02-09T21:54:28.188Z,70.15
2023-02-09T21:56:55.542Z,70.36
2023-02-09T21:59:21.972Z,70.12
2023-02-09T22:01:48.465Z,70.14
2023-02-09T22:04:14.981Z,71.93
2023-02-09T22:06:41.909Z,72.01
2023-02-09T22:09:08.474Z,72.05
2023-02-09T22:11:34.964Z,70.93
2023-02-09T22:14:01.510Z,71.73
2023-02-09T22:16:29.461Z,71.32
2023-02-09T22:18:56.507Z,71.97
2023-02-09T22:21:23.057Z,73.59
2023-02-09T22:23:51.256Z,73.39
2023-02-09T22:26:17.710Z,73.00
2023-02-09T22:28:44.274Z,74.66
2023-02-09T22:31:12.682Z,74.18
2023-02-09T22:33:39.207Z,74.70
2023-02-09T22:36:06.578Z,72.85
2023-02-09T22:38:33.431Z,73.03
2023-02-09T22:41:07.296Z,74.30
2023-02-09T22:43:34.618Z,73.58
2023-02-09T22:46:01.228Z,74.04
2023-02-09T22:48:27.750Z,74.20
2023-02-09T22:50:54.257Z,75.34
2023-02-09T22:53:20.726Z,73.93
2023-02-09T22:55:48.523Z,73.15
2023-02-09T22:58:15.224Z,73.52
2023-02-09T23:00:41.821Z,73.29
2023-02-09T23:03:08.287Z,73.69
2023-02-09T23:05:35.209Z,74.44
2023-02-09T23:08:01.632Z,74.82
2023-02-09T23:10:28.076Z,74.88
2023-02-09T23:12:54.536Z,75.04
2023-02-09T23:15:20.996Z,74.32
2023-02-09T23:17:47.465Z,75.30
2023-02-09T23:20:13.924Z,76.23
2023-02-09T23:22:40.425Z,75.49
2023-02-09T23:25:07.111Z,75.98
2023-02-09T23:27:33.536Z,76.27
2023-02-09T23:30:00.077Z,75.14
2023-02-09T23:32:26.687Z,75.68
2023-02-09T23:34:53.163Z,75.82
2023-02-09T23:37:36.822Z,75.35
2023-02-09T23:40:04.374Z,75.79
2023-02-09T23:42:30.833Z,75.24
2023-02-09T23:44:57.275Z,75.24
2023-02-09T23:47:23.763Z,75.34
2023-02-09T23:49:50.769Z,76.48
2023-02-09T23:52:17.233Z,75.71
2023-02-09T23:54:43.727Z,75.43
2023-02-09T23:57:10.164Z,75.81
2023-02-09T23:59:36.587Z,75.90
